Andover, SD

12:47 AM CDT on March 27, 2015 (GMT -0500)
KSDGROTO1 | | Change Station
CLOSE
Current Station
Personal Weather Station
Location: Groton, SD
Elevation: 1295 ft
Nearby Weather Stations

Elev 1295 ft 45.45 °N, 98.10 °W | Updated 2 minutes ago

Clear
Clear
19.9 °F
Feels Like 20 °F
N
1.0
Wind Variable Wind from East
Gusts 3.0 mph

Today
High -- | Low -- °F
--% Chance of Precip.
Yesterday
High -- | Low -- °F
Precip. -- in
7:21 AM 7:53 PM
Waxing Crescent, 49% visible
Pressure 30.35 in
Visibility 10.0 miles
Clouds Clear
Windchill 20 °F
Dew Point 14 °F
Humidity 77%
Rainfall 0.00 in
Snow Depth Not available.
UV 0 out of 12
Pollen .40 out of 12
Air Quality Not available.
Flu Activity Not available.
METAR KABR 270453Z AUTO 05003KT 10SM CLR M07/M11 A3030 RMK AO2 SLP277 T10671106

More Conditions Fewer Conditions

Pressure 30.35 in
Visibility 10.0 miles
Clouds Clear
Windchill 20 °F
Dew Point 14 °F
Humidity 77%
Rainfall 0.00 in
Snow Depth Not available.
UV 0 out of 12
Pollen .40 out of 12
Air Quality Not available.
Flu Activity Not available.
METAR KABR 270453Z AUTO 05003KT 10SM CLR M07/M11 A3030 RMK AO2 SLP277 T10671106

More Conditions Fewer Conditions

10-Day Weather Forecast

Almanac

Astronomy

Mar. 27, 2015 Rise Set
Actual Time
Civil Twilight
Nautical Twilight
Astronomical Twilight
Moon
Length of Visible Light
Length of Day
Tomorrow will be .
, % of the Moon is Illuminated

Today's Extremes

State Highs State Lows

Community

WunderPhotos

Upload Photos

1,808,698 photos uploaded!

WunderBlogs® & News

Nearby

Air Quality

  Air Quality AQ Index Pollutant
Not available.

Snow Depth

Station Depth Elevation

Earthquake Activity

City Distance Mag. Time & Date
Minimum magnitude displayed is 2.5.

Coastal Water Temperatures

Place Temperature

Stations

Nearby Weather Stations

Station Location Temp. Windchill Dew Point Humidity Wind Precip. Elev Updated Type